Accueil
METAR-TAF:

METAR-TAF

Aéroports :

Base aérienne 113 Saint-Dizier-Robinson

Saint-Dizier, France

latitude: 48-38N, longitude: 004-54E, altitude: 139 m

Observation

Le bulletin a été fait il y a 21 minutes, à 06:00 UTC
Vent 2 kt de est/sud-est
Température -3°C
Humidité 93%
Pression 1031 hPa
Visibilité: 6000 m

METAR: LFSI 240600Z AUTO 11002KT 6000 NSC M03/M04 Q1031

Heure: 07:21 (06:21 UTC)

Prévision

Le bulletin a été fait il y a 4 heures et 21 minutes, à 02:00 UTC
Prévision valable du 24 à 03 UTC au 25 à 03 UTC
Vent 3 kt de est
Visibilité: 2000 m
brume
Probabilité 30% :
Temporairement
du 24 à 04 UTC au 24 à 08 UTC
Visibilité: 0800 m
brouillard givrant

TAF: LFSI 240200Z 2403/2503 08003KT 2000 BR NSC PROB30 TEMPO 2404/2408 0800 FZFG

Observations et prévisions météorologiques de plus de 4000 aéroports (messages METAR et TAF).

Les stations disponibles sont représentées par des disques jaunes et rouges sur la carte.

Passer la souris dessus pour voir le nom de la station.

Cliquer dessus pour voir les observations et prévisions météorologiques.

Pour changer de carte: cliquez sur les boutons verts avec une croix noire pour zoomer, sur le bouton vert avec un tiret pour effectuer un zoom arrière, ou sur les flèches vertes pour les cartes adjacentes.


METAR-TAF: